createdAt,value
2022-08-30T15:59:59.897Z,35.66
2022-08-30T16:01:09.735Z,34.6
2022-08-30T16:01:59.868Z,33.8
2022-08-30T16:02:59.868Z,33.98
2022-08-30T16:03:59.885Z,33.79
2022-08-30T16:04:59.851Z,33.69
2022-08-30T16:05:59.970Z,33.58
2022-08-30T16:07:08.671Z,34
2022-08-30T16:07:59.811Z,34.42
2022-08-30T16:08:59.838Z,35.16
2022-08-30T16:09:59.784Z,35.44
2022-08-30T16:10:59.774Z,34.72
2022-08-30T16:11:59.775Z,34.39
2022-08-30T16:12:59.782Z,34.08
2022-08-30T16:13:59.743Z,33.77
2022-08-30T16:14:59.742Z,33.48
2022-08-30T16:15:59.749Z,33.9
2022-08-30T16:16:59.721Z,33.89
2022-08-30T16:17:59.748Z,33.69
2022-08-30T16:18:59.693Z,33.26
2022-08-30T16:19:59.677Z,33.26
2022-08-30T16:20:59.672Z,33.9
2022-08-30T16:21:59.669Z,33.98
2022-08-30T16:22:59.656Z,34.29
2022-08-30T16:23:59.666Z,34.09
2022-08-30T16:24:59.630Z,33.98
2022-08-30T16:25:59.616Z,32.94
2022-08-30T16:26:59.617Z,32.94
2022-08-30T16:27:59.593Z,32.75
2022-08-30T16:28:59.603Z,32.53
2022-08-30T16:29:59.578Z,32.84
2022-08-30T16:30:59.562Z,32.53
2022-08-30T16:31:59.570Z,32.65
2022-08-30T16:32:59.545Z,32.65
2022-08-30T16:33:59.534Z,33.07
2022-08-30T16:34:59.518Z,34.5
2022-08-30T16:35:59.520Z,34.31
2022-08-30T16:36:59.517Z,34.72
2022-08-30T16:37:59.507Z,34.93
2022-08-30T16:38:59.480Z,34.72
2022-08-30T16:39:59.477Z,34.52
2022-08-30T16:40:59.469Z,34.42
2022-08-30T16:41:59.468Z,34.62
2022-08-30T16:42:59.455Z,34.33
2022-08-30T16:43:59.433Z,34.44
2022-08-30T16:44:59.424Z,34.36
2022-08-30T16:45:59.418Z,34.69
2022-08-30T16:46:59.408Z,35.21
2022-08-30T16:47:59.400Z,36.34
2022-08-30T16:48:59.396Z,37.05
2022-08-30T16:49:59.398Z,37.46
2022-08-30T16:50:59.358Z,37.65
2022-08-30T16:51:59.414Z,37.55
2022-08-30T16:52:59.352Z,37.63
2022-08-30T16:53:59.351Z,37.23
2022-08-30T16:54:59.316Z,37.03
2022-08-30T16:55:59.363Z,36.93
2022-08-30T16:56:59.297Z,37.03
2022-08-30T16:57:59.287Z,37.13
2022-08-30T16:58:59.305Z,36.82
2022-08-30T16:59:59.257Z,36.62
2022-08-30T17:00:59.260Z,36.51
2022-08-30T17:01:59.239Z,36.4
2022-08-30T17:02:59.228Z,36.62
2022-08-30T17:03:59.244Z,36.4
2022-08-30T17:04:59.212Z,36.4
2022-08-30T17:05:59.899Z,36.09
2022-08-30T17:06:59.196Z,36.21
2022-08-30T17:07:59.175Z,36.29
2022-08-30T17:08:59.162Z,35.99
2022-08-30T17:09:59.150Z,35.99
2022-08-30T17:10:59.139Z,36.09
2022-08-30T17:11:59.135Z,35.88
2022-08-30T17:12:59.131Z,35.89
2022-08-30T17:13:59.109Z,36.08
2022-08-30T17:14:59.100Z,35.76
2022-08-30T17:15:59.108Z,35.45
2022-08-30T17:16:59.076Z,35.27
2022-08-30T17:17:59.069Z,35.35
2022-08-30T17:18:59.056Z,35.25
2022-08-30T17:19:59.045Z,34.94
2022-08-30T17:20:59.048Z,34.65
2022-08-30T17:21:59.100Z,34.98
2022-08-30T17:22:59.029Z,35.5
2022-08-30T17:23:59.014Z,36.21
2022-08-30T17:24:58.996Z,36.95
2022-08-30T17:25:58.982Z,37.36
2022-08-30T17:26:58.976Z,37.76
2022-08-30T17:27:58.962Z,37.95
2022-08-30T17:28:58.969Z,37.95
2022-08-30T17:29:58.966Z,37.97
2022-08-30T17:30:58.937Z,38.38
2022-08-30T17:31:58.917Z,38.79
2022-08-30T17:32:58.928Z,39.09
2022-08-30T17:33:58.977Z,38.78
2022-08-30T17:34:58.915Z,38.58
2022-08-30T17:35:58.886Z,38.58
2022-08-30T17:36:58.866Z,39.09
2022-08-30T17:37:58.916Z,39.31
2022-08-30T17:38:58.863Z,39.42
2022-08-30T17:39:58.830Z,39.92
2022-08-30T17:40:58.837Z,39.52
2022-08-30T17:41:58.807Z,39.64
2022-08-30T17:42:58.796Z,39.95
2022-08-30T17:43:58.785Z,40.05
2022-08-30T17:44:58.782Z,39.94
2022-08-30T17:45:58.777Z,39.94
2022-08-30T17:46:58.769Z,40.35
2022-08-30T17:47:58.746Z,40.37
2022-08-30T17:48:58.739Z,40.25
2022-08-30T17:49:58.724Z,40.07
2022-08-30T17:50:58.715Z,40.58
2022-08-30T17:51:58.714Z,40.58
2022-08-30T17:52:58.730Z,40.69
2022-08-30T17:53:58.702Z,40.58
2022-08-30T17:54:58.677Z,40.98
2022-08-30T17:55:58.668Z,40.98
2022-08-30T17:56:58.646Z,41.3
2022-08-30T17:57:58.651Z,41.61
2022-08-30T17:58:58.629Z,41.2
2022-08-30T17:59:58.635Z,41.08
2022-08-30T18:00:58.613Z,41.08
2022-08-30T18:01:58.600Z,41.28
2022-08-30T18:02:58.586Z,41.59
2022-08-30T18:03:58.593Z,41.49
2022-08-30T18:04:58.580Z,41.59
2022-08-30T18:05:58.552Z,41.49
2022-08-30T18:06:58.550Z,41.28
2022-08-30T18:07:58.552Z,41.38
2022-08-30T18:08:58.525Z,41.28
2022-08-30T18:09:58.514Z,41.49
2022-08-30T18:10:58.496Z,41.69
2022-08-30T18:11:58.496Z,41.79
2022-08-30T18:12:58.489Z,42.01
2022-08-30T18:13:58.493Z,42.11
2022-08-30T18:14:58.456Z,42.52
2022-08-30T18:15:58.445Z,42.3
2022-08-30T18:16:58.437Z,42.3
2022-08-30T18:17:58.429Z,42.11
2022-08-30T18:18:58.410Z,42.21
2022-08-30T18:19:58.405Z,42.3
2022-08-30T18:20:58.407Z,42.4
2022-08-30T18:21:58.411Z,42.6
2022-08-30T18:22:58.383Z,42.92
2022-08-30T18:23:58.365Z,42.92
2022-08-30T18:24:58.364Z,42.94
2022-08-30T18:25:58.341Z,43.04
2022-08-30T18:27:06.947Z,43.02
2022-08-30T18:27:58.329Z,43.13
2022-08-30T18:28:58.306Z,43.24
2022-08-30T18:29:58.304Z,43.26
2022-08-30T18:30:58.295Z,43.35
2022-08-30T18:31:58.296Z,43.33
2022-08-30T18:32:58.270Z,42.84
2022-08-30T18:33:58.263Z,42.84
2022-08-30T18:34:58.257Z,42.74
2022-08-30T18:35:58.244Z,42.64
2022-08-30T18:36:58.227Z,42.43
2022-08-30T18:37:58.220Z,42.22
2022-08-30T18:38:58.200Z,42.44
2022-08-30T18:39:58.192Z,42.43
2022-08-30T18:40:58.182Z,42.22
2022-08-30T18:41:58.168Z,42.01
2022-08-30T18:42:58.170Z,42.03
2022-08-30T18:43:58.200Z,42.22
2022-08-30T18:44:58.160Z,42.32
2022-08-30T18:45:58.171Z,42.84
2022-08-30T18:46:58.196Z,44.15
2022-08-30T18:47:58.198Z,45.9
2022-08-30T18:48:58.097Z,47.11
2022-08-30T18:49:58.081Z,47.43
2022-08-30T18:50:58.072Z,47.73
2022-08-30T18:51:58.070Z,47.53
2022-08-30T18:52:58.050Z,47.11
2022-08-30T18:53:58.036Z,47.33
2022-08-30T18:54:58.037Z,47.43
2022-08-30T18:55:58.091Z,47.85
2022-08-30T18:56:58.005Z,48.17
2022-08-30T18:57:57.993Z,48.79
2022-08-30T18:58:57.984Z,49.29
2022-08-30T18:59:57.975Z,49.8
2022-08-30T19:00:57.976Z,49.93
2022-08-30T19:01:57.969Z,49.93
2022-08-30T19:02:57.958Z,50.13
2022-08-30T19:03:57.929Z,50.03
2022-08-30T19:04:57.911Z,50.13
2022-08-30T19:05:57.907Z,50.85
2022-08-30T19:06:57.889Z,51.27
2022-08-30T19:07:57.891Z,51.77
2022-08-30T19:08:57.873Z,51.87
2022-08-30T19:09:57.862Z,52.07
2022-08-30T19:10:57.845Z,51.97
2022-08-30T19:11:57.831Z,52.17
2022-08-30T19:12:57.843Z,51.95
2022-08-30T19:13:57.816Z,51.65
2022-08-30T19:14:57.808Z,51.12
2022-08-30T19:15:57.791Z,51.62
2022-08-30T19:16:57.784Z,51.54
2022-08-30T19:17:57.770Z,52.04
2022-08-30T19:18:57.769Z,52.27
2022-08-30T19:19:57.773Z,52.59
2022-08-30T19:20:57.741Z,53.02
2022-08-30T19:21:57.732Z,52.79
2022-08-30T19:22:57.716Z,51.97
2022-08-30T19:23:57.713Z,51.22
2022-08-30T19:24:57.692Z,50.6
2022-08-30T19:25:57.709Z,50.4
2022-08-30T19:26:57.681Z,50.8
2022-08-30T19:27:57.677Z,50.48
2022-08-30T19:28:57.650Z,50.05
2022-08-30T19:29:57.641Z,49.86
2022-08-30T19:30:57.636Z,49.88
2022-08-30T19:31:57.626Z,51.54
2022-08-30T19:32:57.611Z,52.27
2022-08-30T19:33:57.637Z,52.89
2022-08-30T19:34:57.589Z,52.04
2022-08-30T19:35:57.580Z,51.82
2022-08-30T19:36:57.601Z,51.72
2022-08-30T19:37:57.558Z,51.52
2022-08-30T19:38:57.547Z,52.02
2022-08-30T19:39:57.546Z,51.7
2022-08-30T19:40:57.547Z,50.98
2022-08-30T19:41:57.511Z,51.3
2022-08-30T19:42:57.504Z,51.7
2022-08-30T19:43:57.498Z,51.82
2022-08-30T19:44:57.494Z,52.42
2022-08-30T19:45:57.473Z,52.12
2022-08-30T19:46:57.475Z,52.42
2022-08-30T19:47:57.488Z,53.02
2022-08-30T19:48:57.454Z,51.95
2022-08-30T19:49:57.426Z,51.54
2022-08-30T19:50:57.429Z,51.52
2022-08-30T19:51:57.413Z,51.62
2022-08-30T19:52:57.443Z,51.72
2022-08-30T19:53:57.386Z,51.92
2022-08-30T19:54:57.372Z,51.6
2022-08-30T19:55:57.380Z,52.02
2022-08-30T19:56:57.378Z,51.79
2022-08-30T19:57:57.345Z,52.02
2022-08-30T19:58:57.371Z,52.31
2022-08-30T19:59:57.356Z,51.79
2022-08-30T20:00:57.310Z,52.09
2022-08-30T20:01:57.306Z,52.64
2022-08-30T20:02:57.289Z,52.72
2022-08-30T20:03:57.279Z,52.42
2022-08-30T20:04:57.283Z,52.09
2022-08-30T20:05:57.264Z,52.84
2022-08-30T20:06:57.246Z,53.33
2022-08-30T20:07:57.248Z,52.72
2022-08-30T20:08:57.227Z,53.53
2022-08-30T20:09:57.216Z,53.96
2022-08-30T20:10:57.228Z,54.16
2022-08-30T20:11:57.206Z,54.38
2022-08-30T20:12:57.211Z,54.58
2022-08-30T20:13:57.177Z,54.35
2022-08-30T20:14:57.165Z,54.06
2022-08-30T20:15:57.156Z,54.06
2022-08-30T20:16:57.149Z,53.83
2022-08-30T20:17:57.142Z,53.51
2022-08-30T20:18:57.132Z,53.31
2022-08-30T20:19:57.124Z,53.53
2022-08-30T20:20:57.106Z,53.93
2022-08-30T20:21:57.100Z,53.41
2022-08-30T20:22:57.082Z,53.21
2022-08-30T20:23:57.067Z,53.31
2022-08-30T20:24:57.073Z,53.63
2022-08-30T20:25:57.047Z,53.93
2022-08-30T20:26:57.035Z,54.03
2022-08-30T20:27:57.033Z,54.46
2022-08-30T20:28:57.021Z,54.55
2022-08-30T20:29:57.013Z,54.65
2022-08-30T20:30:57.003Z,53.93
2022-08-30T20:31:56.988Z,53.73
2022-08-30T20:32:56.975Z,53.83
2022-08-30T20:33:56.959Z,53.63
2022-08-30T20:34:56.953Z,54.03
2022-08-30T20:35:56.948Z,53.51
2022-08-30T20:36:56.950Z,53.73
2022-08-30T20:37:56.961Z,54.03
2022-08-30T20:38:56.904Z,54.03
2022-08-30T20:39:56.898Z,54.16
2022-08-30T20:40:56.889Z,54.78
2022-08-30T20:41:56.874Z,55.08
2022-08-30T20:42:56.863Z,54.88
2022-08-30T20:43:56.861Z,55.08
2022-08-30T20:44:56.863Z,55.2
2022-08-30T20:45:56.951Z,56.02
2022-08-30T20:46:56.822Z,55.7
2022-08-30T20:47:56.815Z,55.6
2022-08-30T20:48:56.803Z,55.7
2022-08-30T20:49:56.786Z,55.5
2022-08-30T20:50:56.791Z,55.73
2022-08-30T20:51:56.780Z,56.02
2022-08-30T20:52:56.758Z,56.12
2022-08-30T20:53:56.753Z,56.23
2022-08-30T20:54:56.735Z,56.65
2022-08-30T20:55:56.722Z,56.85
2022-08-30T20:56:56.711Z,56.55
2022-08-30T20:57:56.712Z,56.32
2022-08-30T20:58:56.706Z,56.23
2022-08-30T20:59:56.681Z,56.35
2022-08-30T21:00:56.670Z,56.68
2022-08-30T21:01:56.668Z,56.68
2022-08-30T21:02:56.650Z,56.75
2022-08-30T21:03:56.638Z,56.45
2022-08-30T21:04:56.637Z,56.65
2022-08-30T21:05:56.618Z,56.02
2022-08-30T21:06:56.610Z,55.5
2022-08-30T21:07:56.613Z,55.53
2022-08-30T21:08:56.588Z,55.2
2022-08-30T21:09:56.577Z,55.53
2022-08-30T21:10:56.567Z,55.23
2022-08-30T21:11:56.551Z,55.82
2022-08-30T21:12:56.544Z,55.82
2022-08-30T21:13:56.544Z,55.82
2022-08-30T21:14:56.555Z,55.73
2022-08-30T21:15:56.514Z,56.25
2022-08-30T21:16:56.499Z,56.35
2022-08-30T21:17:56.498Z,56.57
2022-08-30T21:18:56.479Z,56.77
2022-08-30T21:19:56.468Z,57.1
2022-08-30T21:20:56.460Z,57.4
2022-08-30T21:21:56.456Z,57.3
2022-08-30T21:22:56.454Z,57.3
2022-08-30T21:23:56.424Z,57.53
2022-08-30T21:24:56.410Z,57.7
2022-08-30T21:25:56.402Z,57.3
2022-08-30T21:26:56.392Z,57.73
2022-08-30T21:27:56.388Z,57.53
2022-08-30T21:28:56.375Z,57.6
2022-08-30T21:29:56.368Z,56.98
2022-08-30T21:30:56.351Z,56.81
2022-08-30T21:31:56.334Z,57.1
2022-08-30T21:32:56.329Z,56.57
2022-08-30T21:33:56.313Z,56.57
2022-08-30T21:34:56.335Z,56.48
2022-08-30T21:35:56.295Z,56.81
2022-08-30T21:36:56.286Z,57.1
2022-08-30T21:37:56.270Z,56.9
2022-08-30T21:38:56.264Z,56.68
2022-08-30T21:39:56.248Z,56.57
2022-08-30T21:40:56.245Z,57.23
2022-08-30T21:41:56.228Z,57.3
2022-08-30T21:42:56.215Z,57.1
2022-08-30T21:43:56.210Z,56.6
2022-08-30T21:44:56.209Z,56.81
2022-08-30T21:45:56.187Z,57
2022-08-30T21:46:56.191Z,57.3
2022-08-30T21:47:56.183Z,57.2
2022-08-30T21:48:56.155Z,57.23
2022-08-30T21:49:56.150Z,56.68
2022-08-30T21:50:56.130Z,56.38
2022-08-30T21:51:56.122Z,56.9
2022-08-30T21:52:56.114Z,57.13
2022-08-30T21:53:56.107Z,57.1
2022-08-30T21:54:56.092Z,57.13
2022-08-30T21:55:56.088Z,57.23
2022-08-30T21:56:56.068Z,57.76
2022-08-30T21:57:56.056Z,57.33
2022-08-30T21:58:56.045Z,56.9
2022-08-30T21:59:56.046Z,57
2022-08-30T22:00:56.029Z,56.93
2022-08-30T22:01:56.025Z,57
2022-08-30T22:02:56.010Z,56.7
2022-08-30T22:03:55.999Z,56.48
2022-08-30T22:04:55.990Z,56.7
2022-08-30T22:05:55.974Z,56.81
2022-08-30T22:06:55.969Z,57.13
2022-08-30T22:07:55.960Z,57.43
2022-08-30T22:08:55.938Z,57.13
2022-08-30T22:09:55.958Z,57.13
2022-08-30T22:10:55.930Z,56.93
2022-08-30T22:11:55.905Z,56.81
2022-08-30T22:12:55.907Z,57
2022-08-30T22:13:55.895Z,56.6
2022-08-30T22:14:55.877Z,56.4
2022-08-30T22:15:55.865Z,56.81
2022-08-30T22:16:55.852Z,56.6
2022-08-30T22:17:55.841Z,56.7
2022-08-30T22:18:55.836Z,57.03
2022-08-30T22:19:55.816Z,57.65
2022-08-30T22:20:55.813Z,57.23
2022-08-30T22:21:55.800Z,57.35
2022-08-30T22:22:55.791Z,57.76
2022-08-30T22:23:55.785Z,57.43
2022-08-30T22:24:55.770Z,56.7
2022-08-30T22:25:55.752Z,56.27
2022-08-30T22:26:55.743Z,55.88
2022-08-30T22:27:55.733Z,56.08
2022-08-30T22:28:55.732Z,56.4
2022-08-30T22:29:55.717Z,56.83
2022-08-30T22:30:55.705Z,56.6
2022-08-30T22:31:55.698Z,56.27
2022-08-30T22:32:55.680Z,56.4
2022-08-30T22:33:55.672Z,57.35
2022-08-30T22:34:55.666Z,57.33
2022-08-30T22:35:55.661Z,57.65
2022-08-30T22:36:55.643Z,57.98
2022-08-30T22:37:55.638Z,57.86
2022-08-30T22:38:55.614Z,57.33
2022-08-30T22:39:55.609Z,56.83
2022-08-30T22:40:55.589Z,57.46
2022-08-30T22:41:55.583Z,57.23
2022-08-30T22:42:55.585Z,56.4
2022-08-30T22:43:55.574Z,57.76
2022-08-30T22:44:55.556Z,57.56
2022-08-30T22:45:55.544Z,58.71
2022-08-30T22:46:55.534Z,58.38
2022-08-30T22:47:55.521Z,58.91
2022-08-30T22:48:55.505Z,58.71
2022-08-30T22:49:55.502Z,58.81
2022-08-30T22:50:55.494Z,58.81
2022-08-30T22:51:55.482Z,57.86
2022-08-30T22:52:55.473Z,58.18
2022-08-30T22:53:55.472Z,59.14
2022-08-30T22:54:55.443Z,59.44
2022-08-30T22:55:55.436Z,59.23
2022-08-30T22:56:55.420Z,59.01
2022-08-30T22:57:55.407Z,58.06
2022-08-30T22:58:55.402Z,57.23
2022-08-30T22:59:55.421Z,57.26
2022-08-30T23:00:55.381Z,57.78
2022-08-30T23:01:55.369Z,58.91
2022-08-30T23:02:55.353Z,58.61
2022-08-30T23:03:55.355Z,58.38
2022-08-30T23:04:55.384Z,58.28
2022-08-30T23:05:55.336Z,57.65
2022-08-30T23:06:55.320Z,57.56
2022-08-30T23:07:55.303Z,58.28
2022-08-30T23:08:55.296Z,58.08
2022-08-30T23:09:55.291Z,59.14
2022-08-30T23:10:55.273Z,59.77
2022-08-30T23:11:55.259Z,59.34
2022-08-30T23:12:55.257Z,59.01
2022-08-30T23:13:55.245Z,58.78
2022-08-30T23:14:55.228Z,58.38
2022-08-30T23:15:55.216Z,57.98
2022-08-30T23:16:55.205Z,57.86
2022-08-30T23:17:55.203Z,57.98
2022-08-30T23:18:55.191Z,58.41
2022-08-30T23:19:55.179Z,59.23
2022-08-30T23:20:55.172Z,58.61
2022-08-30T23:21:55.152Z,58.38
2022-08-30T23:22:55.140Z,57.98
2022-08-30T23:23:55.129Z,58.18
2022-08-30T23:24:55.119Z,58.18
2022-08-30T23:25:55.128Z,58.91
2022-08-30T23:26:55.118Z,59.11
2022-08-30T23:27:55.118Z,58.18
2022-08-30T23:28:55.077Z,57.56
2022-08-30T23:29:55.069Z,57.03
2022-08-30T23:30:55.060Z,56.83
2022-08-30T23:31:55.053Z,56.6
2022-08-30T23:32:55.032Z,56.4
2022-08-30T23:33:55.021Z,57.15
2022-08-30T23:34:55.025Z,57.15
2022-08-30T23:35:55.007Z,57.46
2022-08-30T23:36:54.991Z,57.98
2022-08-30T23:37:54.984Z,57.78
2022-08-30T23:38:54.966Z,58.51
2022-08-30T23:39:54.959Z,59.34
2022-08-30T23:40:54.974Z,59.14
2022-08-30T23:41:54.936Z,59.01
2022-08-30T23:42:54.927Z,58.81
2022-08-30T23:43:54.913Z,57.76
2022-08-30T23:44:54.902Z,57.35
2022-08-30T23:45:54.896Z,57.56
2022-08-30T23:46:54.898Z,57.46
2022-08-30T23:47:54.869Z,57.03
2022-08-30T23:48:54.867Z,56.63
2022-08-30T23:49:54.851Z,56.3
2022-08-30T23:50:54.875Z,56.73
2022-08-30T23:51:54.857Z,56.83
2022-08-30T23:52:54.872Z,56.96
2022-08-30T23:53:54.808Z,56.96
2022-08-30T23:54:54.800Z,57.48
2022-08-30T23:55:54.783Z,57.35
2022-08-30T23:56:54.776Z,57.26
2022-08-30T23:57:54.760Z,57.56
2022-08-30T23:58:54.756Z,57.26
2022-08-30T23:59:54.752Z,57.35
